createdAt,value
2019-01-21T00:00:05.081Z,1000.35
2019-01-21T00:01:05.112Z,1000.36
2019-01-21T00:02:05.145Z,1000.43
2019-01-21T00:03:05.175Z,1000.42
2019-01-21T00:04:05.206Z,1000.39
2019-01-21T00:05:05.241Z,1000.35
2019-01-21T00:06:05.271Z,1000.36
2019-01-21T00:07:05.304Z,1000.34
2019-01-21T00:08:05.339Z,1000.35
2019-01-21T00:09:05.375Z,1000.35
2019-01-21T00:10:05.399Z,1000.34
2019-01-21T00:11:05.493Z,1000.34
2019-01-21T00:12:05.463Z,1000.34
2019-01-21T00:13:05.498Z,1000.37
2019-01-21T00:14:05.532Z,1000.38
2019-01-21T00:15:05.561Z,1000.37
2019-01-21T00:16:05.597Z,1000.39
2019-01-21T00:17:05.634Z,1000.39
2019-01-21T00:18:05.668Z,1000.43
2019-01-21T00:19:05.693Z,1000.38
2019-01-21T00:20:05.723Z,1000.39
2019-01-21T00:21:05.755Z,1000.38
2019-01-21T00:22:05.790Z,1000.38
2019-01-21T00:23:05.819Z,1000.36
2019-01-21T00:24:05.851Z,1000.36
2019-01-21T00:25:05.884Z,1000.35
2019-01-21T00:26:05.922Z,1000.32
2019-01-21T00:27:05.952Z,1000.35
2019-01-21T00:28:05.985Z,1000.33
2019-01-21T00:29:06.013Z,1000.32
2019-01-21T00:30:06.046Z,1000.37
2019-01-21T00:31:06.078Z,1000.38
2019-01-21T00:32:06.109Z,1000.39
2019-01-21T00:33:06.142Z,1000.39
2019-01-21T00:34:06.174Z,1000.38
2019-01-21T00:35:06.208Z,1000.33
2019-01-21T00:36:06.238Z,1000.39
2019-01-21T00:37:06.277Z,1000.38
2019-01-21T00:38:06.303Z,1000.38
2019-01-21T00:39:06.344Z,1000.36
2019-01-21T00:40:06.368Z,1000.37
2019-01-21T00:41:06.399Z,1000.39
2019-01-21T00:42:06.431Z,1000.39
2019-01-21T00:43:06.473Z,1000.43
2019-01-21T00:44:06.495Z,1000.40
2019-01-21T00:45:06.527Z,1000.39
2019-01-21T00:46:06.559Z,1000.44
2019-01-21T00:47:06.593Z,1000.46
2019-01-21T00:48:06.623Z,1000.45
2019-01-21T00:49:06.666Z,1000.49
2019-01-21T00:50:06.688Z,1000.47
2019-01-21T00:51:06.722Z,1000.41
2019-01-21T00:52:06.752Z,1000.46
2019-01-21T00:53:06.785Z,1000.40
2019-01-21T00:54:06.816Z,1000.40
2019-01-21T00:55:06.850Z,1000.40
2019-01-21T00:56:06.882Z,1000.43
2019-01-21T00:57:06.913Z,1000.44
2019-01-21T00:58:06.944Z,1000.45
2019-01-21T00:59:06.979Z,1000.46
2019-01-21T01:00:07.009Z,1000.45
2019-01-21T01:01:07.040Z,1000.45
2019-01-21T01:02:07.074Z,1000.45
2019-01-21T01:03:07.107Z,1000.41
2019-01-21T01:04:07.143Z,1000.47
2019-01-21T01:05:07.169Z,1000.42
2019-01-21T01:06:07.205Z,1000.41
2019-01-21T01:07:07.251Z,1000.42
2019-01-21T01:08:07.267Z,1000.44
2019-01-21T01:09:07.299Z,1000.44
2019-01-21T01:10:07.338Z,1000.46
2019-01-21T01:11:07.362Z,1000.46
2019-01-21T01:12:07.396Z,1000.49
2019-01-21T01:13:07.430Z,1000.49
2019-01-21T01:14:07.458Z,1000.51
2019-01-21T01:15:07.490Z,1000.45
2019-01-21T01:16:07.532Z,1000.49
2019-01-21T01:17:07.562Z,1000.49
2019-01-21T01:18:07.586Z,1000.48
2019-01-21T01:19:07.617Z,1000.44
2019-01-21T01:20:07.649Z,1000.47
2019-01-21T01:21:07.682Z,1000.46
2019-01-21T01:22:07.713Z,1000.46
2019-01-21T01:23:07.745Z,1000.48
2019-01-21T01:24:07.779Z,1000.49
2019-01-21T01:25:07.958Z,1000.49
2019-01-21T01:26:07.842Z,1000.54
2019-01-21T01:27:07.878Z,1000.50
2019-01-21T01:28:07.911Z,1000.51
2019-01-21T01:29:07.936Z,1000.50
2019-01-21T01:30:07.970Z,1000.57
2019-01-21T01:31:08.001Z,1000.56
2019-01-21T01:32:08.032Z,1000.56
2019-01-21T01:33:08.064Z,1000.56
2019-01-21T01:34:08.098Z,1000.56
2019-01-21T01:35:08.129Z,1000.56
2019-01-21T01:36:08.160Z,1000.52
2019-01-21T01:37:08.196Z,1000.55
2019-01-21T01:38:08.224Z,1000.55
2019-01-21T01:39:08.257Z,1000.53
2019-01-21T01:40:08.290Z,1000.48
2019-01-21T01:41:08.319Z,1000.54
2019-01-21T01:42:08.362Z,1000.53
2019-01-21T01:43:08.385Z,1000.54
2019-01-21T01:44:08.421Z,1000.52
2019-01-21T01:45:08.449Z,1000.52
2019-01-21T01:46:08.481Z,1000.52
2019-01-21T01:47:08.512Z,1000.52
2019-01-21T01:48:08.542Z,1000.49
2019-01-21T01:49:08.575Z,1000.52
2019-01-21T01:50:08.606Z,1000.50
2019-01-21T01:51:08.640Z,1000.51
2019-01-21T01:52:08.671Z,1000.50
2019-01-21T01:53:08.702Z,1000.48
2019-01-21T01:54:08.734Z,1000.51
2019-01-21T01:55:08.781Z,1000.47
2019-01-21T01:56:08.798Z,1000.48
2019-01-21T01:57:08.830Z,1000.48
2019-01-21T01:58:08.861Z,1000.49
2019-01-21T01:59:08.895Z,1000.53
2019-01-21T02:00:08.924Z,1000.47
2019-01-21T02:01:08.957Z,1000.48
2019-01-21T02:02:08.992Z,1000.50
2019-01-21T02:03:09.029Z,1000.52
2019-01-21T02:04:09.054Z,1000.47
2019-01-21T02:05:09.085Z,1000.50
2019-01-21T02:06:09.119Z,1000.53
2019-01-21T02:07:09.152Z,1000.49
2019-01-21T02:08:09.181Z,1000.51
2019-01-21T02:09:09.211Z,1000.54
2019-01-21T02:10:09.244Z,1000.51
2019-01-21T02:11:09.278Z,1000.53
2019-01-21T02:12:09.310Z,1000.53
2019-01-21T02:13:09.341Z,1000.49
2019-01-21T02:14:09.376Z,1000.49
2019-01-21T02:15:09.404Z,1000.49
2019-01-21T02:16:09.433Z,1000.48
2019-01-21T02:17:09.472Z,1000.48
2019-01-21T02:18:09.498Z,1000.50
2019-01-21T02:19:09.530Z,1000.49
2019-01-21T02:20:09.563Z,1000.52
2019-01-21T02:21:09.594Z,1000.48
2019-01-21T02:22:09.628Z,1000.51
2019-01-21T02:23:09.659Z,1000.55
2019-01-21T02:24:09.732Z,1000.50
2019-01-21T02:25:09.822Z,1000.53
2019-01-21T02:26:09.755Z,1000.49
2019-01-21T02:27:09.795Z,1000.54
2019-01-21T02:28:09.819Z,1000.48
2019-01-21T02:29:09.849Z,1000.50
2019-01-21T02:30:09.883Z,1000.47
2019-01-21T02:31:09.911Z,1000.49
2019-01-21T02:32:09.946Z,1000.51
2019-01-21T02:33:09.976Z,1000.52
2019-01-21T02:34:10.007Z,1000.49
2019-01-21T02:35:10.055Z,1000.47
2019-01-21T02:36:10.070Z,1000.50
2019-01-21T02:37:10.103Z,1000.52
2019-01-21T02:38:10.133Z,1000.52
2019-01-21T02:39:10.166Z,1000.52
2019-01-21T02:40:10.198Z,1000.53
2019-01-21T02:41:10.230Z,1000.49
2019-01-21T02:42:10.261Z,1000.54
2019-01-21T02:43:10.294Z,1000.52
2019-01-21T02:44:10.323Z,1000.56
2019-01-21T02:45:10.363Z,1000.53
2019-01-21T02:46:10.390Z,1000.52
2019-01-21T02:47:10.429Z,1000.53
2019-01-21T02:48:10.455Z,1000.49
2019-01-21T02:49:10.488Z,1000.56
2019-01-21T02:50:10.515Z,1000.56
2019-01-21T02:51:10.548Z,1000.55
2019-01-21T02:52:10.579Z,1000.57
2019-01-21T02:53:10.614Z,1000.54
2019-01-21T02:54:10.645Z,1000.54
2019-01-21T02:55:10.680Z,1000.49
2019-01-21T02:56:10.706Z,1000.49
2019-01-21T02:57:10.738Z,1000.48
2019-01-21T02:58:10.780Z,1000.46
2019-01-21T02:59:10.811Z,1000.46
2019-01-21T03:00:10.832Z,1000.46
2019-01-21T03:01:10.865Z,1000.47
2019-01-21T03:02:10.897Z,1000.47
2019-01-21T03:03:10.928Z,1000.48
2019-01-21T03:04:10.962Z,1000.49
2019-01-21T03:05:10.999Z,1000.51
2019-01-21T03:06:11.024Z,1000.50
2019-01-21T03:07:11.057Z,1000.50
2019-01-21T03:08:11.088Z,1000.44
2019-01-21T03:09:11.129Z,1000.43
2019-01-21T03:10:11.153Z,1000.44
2019-01-21T03:11:11.186Z,1000.43
2019-01-21T03:12:11.213Z,1000.50
2019-01-21T03:13:11.245Z,1000.45
2019-01-21T03:14:11.278Z,1000.43
2019-01-21T03:15:11.314Z,1000.44
2019-01-21T03:16:11.342Z,1000.46
2019-01-21T03:17:11.373Z,1000.46
2019-01-21T03:18:11.416Z,1000.48
2019-01-21T03:19:11.435Z,1000.47
2019-01-21T03:20:11.469Z,1000.48
2019-01-21T03:21:11.503Z,1000.51
2019-01-21T03:22:11.536Z,1000.50
2019-01-21T03:23:11.564Z,1000.51
2019-01-21T03:24:11.600Z,1000.46
2019-01-21T03:25:11.630Z,1000.51
2019-01-21T03:26:11.666Z,1000.51
2019-01-21T03:27:11.689Z,1000.51
2019-01-21T03:28:11.730Z,1000.55
2019-01-21T03:29:11.762Z,1000.54
2019-01-21T03:30:11.796Z,1000.54
2019-01-21T03:31:11.818Z,1000.50
2019-01-21T03:32:11.849Z,1000.51
2019-01-21T03:33:11.889Z,1000.54
2019-01-21T03:34:11.913Z,1000.55
2019-01-21T03:35:11.952Z,1000.56
2019-01-21T03:36:11.977Z,1000.57
2019-01-21T03:37:12.007Z,1000.59
2019-01-21T03:38:12.044Z,1000.59
2019-01-21T03:39:12.084Z,1000.63
2019-01-21T03:40:12.104Z,1000.61
2019-01-21T03:41:12.132Z,1000.64
2019-01-21T03:42:12.169Z,1000.62
2019-01-21T03:43:12.197Z,1000.62
2019-01-21T03:44:12.232Z,1000.59
2019-01-21T03:45:12.261Z,1000.58
2019-01-21T03:46:12.291Z,1000.56
2019-01-21T03:47:12.326Z,1000.52
2019-01-21T03:48:16.721Z,1000.55
2019-01-21T03:49:12.388Z,1000.60
2019-01-21T03:50:12.419Z,1000.55
2019-01-21T03:51:12.449Z,1000.53
2019-01-21T03:52:12.483Z,1000.55
2019-01-21T03:53:12.514Z,1000.55
2019-01-21T03:54:12.547Z,1000.54
2019-01-21T03:55:12.586Z,1000.56
2019-01-21T03:56:12.623Z,1000.49
2019-01-21T03:57:12.699Z,1000.53
2019-01-21T03:58:12.674Z,1000.51
2019-01-21T03:59:12.701Z,1000.50
2019-01-21T04:00:12.734Z,1000.52
2019-01-21T04:01:12.767Z,1000.50
2019-01-21T04:02:12.801Z,1000.54
2019-01-21T04:03:12.831Z,1000.52
2019-01-21T04:04:12.862Z,1000.54
2019-01-21T04:05:12.895Z,1000.56
2019-01-21T04:06:12.932Z,1000.62
2019-01-21T04:07:12.957Z,1000.56
2019-01-21T04:08:12.987Z,1000.62
2019-01-21T04:09:13.022Z,1000.63
2019-01-21T04:10:13.050Z,1000.66
2019-01-21T04:11:13.086Z,1000.63
2019-01-21T04:12:13.114Z,1000.68
2019-01-21T04:13:13.202Z,1000.63
2019-01-21T04:14:13.177Z,1000.62
2019-01-21T04:15:13.214Z,1000.60
2019-01-21T04:16:13.243Z,1000.63
2019-01-21T04:17:13.293Z,1000.63
2019-01-21T04:18:13.309Z,1000.66
2019-01-21T04:19:13.338Z,1000.68
2019-01-21T04:20:13.368Z,1000.60
2019-01-21T04:21:13.401Z,1000.67
2019-01-21T04:22:13.434Z,1000.62
2019-01-21T04:23:13.465Z,1000.67
2019-01-21T04:24:13.495Z,1000.68
2019-01-21T04:25:13.526Z,1000.68
2019-01-21T04:26:13.563Z,1000.67
2019-01-21T04:27:13.594Z,1000.71
2019-01-21T04:28:13.621Z,1000.70
2019-01-21T04:29:13.656Z,1000.65
2019-01-21T04:30:13.687Z,1000.65
2019-01-21T04:31:13.719Z,1000.63
2019-01-21T04:32:13.749Z,1000.68
2019-01-21T04:33:13.781Z,1000.70
2019-01-21T04:34:13.823Z,1000.69
2019-01-21T04:35:13.844Z,1000.65
2019-01-21T04:36:13.882Z,1000.65
2019-01-21T04:37:13.909Z,1000.65
2019-01-21T04:38:13.940Z,1000.66
2019-01-21T04:39:13.974Z,1000.68
2019-01-21T04:40:14.003Z,1000.65
2019-01-21T04:41:14.039Z,1000.68
2019-01-21T04:42:14.070Z,1000.67
2019-01-21T04:43:14.100Z,1000.67
2019-01-21T04:44:14.132Z,1000.70
2019-01-21T04:45:14.163Z,1000.62
2019-01-21T04:46:14.197Z,1000.69
2019-01-21T04:47:14.230Z,1000.69
2019-01-21T04:48:14.263Z,1000.69
2019-01-21T04:49:14.292Z,1000.68
2019-01-21T04:50:14.324Z,1000.71
2019-01-21T04:51:14.366Z,1000.66
2019-01-21T04:52:14.391Z,1000.60
2019-01-21T04:53:14.423Z,1000.55
2019-01-21T04:54:14.461Z,1000.56
2019-01-21T04:55:14.492Z,1000.57
2019-01-21T04:56:14.519Z,1000.56
2019-01-21T04:57:14.551Z,1000.54
2019-01-21T04:58:14.581Z,1000.57
2019-01-21T04:59:14.614Z,1000.57
2019-01-21T05:00:14.646Z,1000.59
2019-01-21T05:01:14.679Z,1000.63
2019-01-21T05:02:14.718Z,1000.59
2019-01-21T05:03:14.743Z,1000.55
2019-01-21T05:04:14.779Z,1000.63
2019-01-21T05:05:14.806Z,1000.63
2019-01-21T05:06:14.839Z,1000.63
2019-01-21T05:07:14.869Z,1000.65
2019-01-21T05:08:14.902Z,1000.64
2019-01-21T05:09:14.933Z,1000.65
2019-01-21T05:10:14.973Z,1000.63
2019-01-21T05:11:15.005Z,1000.64
2019-01-21T05:12:15.032Z,1000.60
2019-01-21T05:13:15.213Z,1000.60
2019-01-21T05:14:15.094Z,1000.59
2019-01-21T05:15:15.135Z,1000.57
2019-01-21T05:16:15.160Z,1000.59
2019-01-21T05:17:15.209Z,1000.57
2019-01-21T05:18:15.222Z,1000.58
2019-01-21T05:19:15.255Z,1000.58
2019-01-21T05:20:15.288Z,1000.57
2019-01-21T05:21:15.319Z,1000.61
2019-01-21T05:22:15.353Z,1000.60
2019-01-21T05:23:15.392Z,1000.58
2019-01-21T05:24:15.418Z,1000.62
2019-01-21T05:25:15.450Z,1000.65
2019-01-21T05:26:15.481Z,1000.63
2019-01-21T05:27:15.514Z,1000.62
2019-01-21T05:28:15.545Z,1000.60
2019-01-21T05:29:15.578Z,1000.64
2019-01-21T05:30:15.660Z,1000.63
2019-01-21T05:31:15.643Z,1000.62
2019-01-21T05:32:15.676Z,1000.63
2019-01-21T05:33:15.707Z,1000.65
2019-01-21T05:34:15.740Z,1000.70
2019-01-21T05:35:15.774Z,1000.65
2019-01-21T05:36:15.804Z,1000.63
2019-01-21T05:37:15.844Z,1000.64
2019-01-21T05:38:15.870Z,1000.65
2019-01-21T05:39:15.905Z,1000.66
2019-01-21T05:40:15.935Z,1000.68
2019-01-21T05:41:15.966Z,1000.70
2019-01-21T05:42:16.000Z,1000.67
2019-01-21T05:43:16.740Z,1000.71
2019-01-21T05:44:16.063Z,1000.71
2019-01-21T05:45:16.096Z,1000.67
2019-01-21T05:46:16.135Z,1000.69
2019-01-21T05:47:16.161Z,1000.67
2019-01-21T05:48:16.193Z,1000.75
2019-01-21T05:49:16.232Z,1000.69
2019-01-21T05:50:16.259Z,1000.66
2019-01-21T05:51:16.294Z,1000.69
2019-01-21T05:52:16.323Z,1000.71
2019-01-21T05:53:16.357Z,1000.69
2019-01-21T05:54:16.388Z,1000.66
2019-01-21T05:55:16.422Z,1000.65
2019-01-21T05:56:16.453Z,1000.63
2019-01-21T05:57:16.487Z,1000.65
2019-01-21T05:58:16.562Z,1000.63
2019-01-21T05:59:16.557Z,1000.63
2019-01-21T06:00:16.585Z,1000.63
2019-01-21T06:01:16.618Z,1000.63
2019-01-21T06:02:16.649Z,1000.68
2019-01-21T06:03:16.683Z,1000.65
2019-01-21T06:04:16.715Z,1000.65
2019-01-21T06:05:16.747Z,1000.67
2019-01-21T06:06:16.780Z,1000.63
2019-01-21T06:07:16.813Z,1000.63
2019-01-21T06:08:16.847Z,1000.61
2019-01-21T06:09:16.877Z,1000.60
2019-01-21T06:10:16.914Z,1000.60
2019-01-21T06:11:16.947Z,1000.65
2019-01-21T06:12:16.977Z,1000.63
2019-01-21T06:13:17.013Z,1000.71
2019-01-21T06:14:17.040Z,1000.74
2019-01-21T06:15:17.075Z,1000.77
2019-01-21T06:16:17.106Z,1000.75
2019-01-21T06:17:17.139Z,1000.73
2019-01-21T06:18:17.174Z,1000.75
2019-01-21T06:19:17.210Z,1000.71
2019-01-21T06:20:17.237Z,1000.71
2019-01-21T06:21:17.272Z,1000.71
2019-01-21T06:22:17.303Z,1000.68
2019-01-21T06:23:17.335Z,1000.71
2019-01-21T06:24:17.367Z,1000.64
2019-01-21T06:25:17.407Z,1000.60
2019-01-21T06:26:17.434Z,1000.63
2019-01-21T06:27:17.466Z,1000.69
2019-01-21T06:28:17.500Z,1000.72
2019-01-21T06:29:17.530Z,1000.75
2019-01-21T06:30:17.572Z,1000.75
2019-01-21T06:31:17.599Z,1000.72
2019-01-21T06:32:17.629Z,1000.70
2019-01-21T06:33:17.661Z,1000.71
2019-01-21T06:34:17.705Z,1000.78
2019-01-21T06:35:17.728Z,1000.80
2019-01-21T06:36:17.759Z,1000.75
2019-01-21T06:37:17.793Z,1000.76
2019-01-21T06:38:17.826Z,1000.82
2019-01-21T06:39:17.859Z,1000.77
2019-01-21T06:40:17.893Z,1000.74
2019-01-21T06:41:17.923Z,1000.74
2019-01-21T06:42:17.963Z,1000.81
2019-01-21T06:43:18.032Z,1000.77
2019-01-21T06:44:18.033Z,1000.78
2019-01-21T06:45:18.052Z,1000.75
2019-01-21T06:46:18.088Z,1000.75
2019-01-21T06:47:18.121Z,1000.78
2019-01-21T06:48:18.152Z,1000.74
2019-01-21T06:49:18.194Z,1000.78
2019-01-21T06:50:18.218Z,1000.84
2019-01-21T06:51:18.252Z,1000.82
2019-01-21T06:52:18.283Z,1000.87
2019-01-21T06:53:18.316Z,1000.86
2019-01-21T06:54:18.349Z,1000.77
2019-01-21T06:55:18.384Z,1000.82
2019-01-21T06:56:18.413Z,1000.83
2019-01-21T06:57:18.447Z,1000.82
2019-01-21T06:58:18.480Z,1000.80
2019-01-21T06:59:18.514Z,1000.84
2019-01-21T07:00:18.546Z,1000.81
2019-01-21T07:01:18.578Z,1000.86
2019-01-21T07:02:18.611Z,1000.88
2019-01-21T07:03:18.646Z,1000.85
2019-01-21T07:04:18.680Z,1000.87
2019-01-21T07:05:18.711Z,1000.86
2019-01-21T07:06:18.742Z,1000.82
2019-01-21T07:07:18.777Z,1000.85
2019-01-21T07:08:18.810Z,1000.91
2019-01-21T07:09:18.858Z,1000.96
2019-01-21T07:10:18.875Z,1000.97
2019-01-21T07:11:18.908Z,1000.93
2019-01-21T07:12:18.941Z,1000.95
2019-01-21T07:13:18.973Z,1000.95
2019-01-21T07:14:19.008Z,1000.90
2019-01-21T07:15:19.043Z,1000.86
2019-01-21T07:16:19.071Z,1000.86
2019-01-21T07:17:19.106Z,1000.86
2019-01-21T07:18:19.723Z,1000.85
2019-01-21T07:19:19.171Z,1000.87
2019-01-21T07:20:19.253Z,1000.85
2019-01-21T07:21:19.244Z,1000.84
2019-01-21T07:22:19.275Z,1000.85
2019-01-21T07:23:19.304Z,1000.90
2019-01-21T07:24:19.337Z,1000.89
2019-01-21T07:25:19.377Z,1000.92
2019-01-21T07:26:19.405Z,1000.89
2019-01-21T07:27:19.441Z,1000.90
2019-01-21T07:28:19.468Z,1000.89
2019-01-21T07:29:19.500Z,1000.90
2019-01-21T07:30:19.534Z,1000.98
2019-01-21T07:31:19.568Z,1000.97
2019-01-21T07:32:19.600Z,1000.90
2019-01-21T07:33:19.634Z,1000.95
2019-01-21T07:34:19.674Z,1000.96
2019-01-21T07:35:19.705Z,1000.97
2019-01-21T07:36:19.730Z,1001.03
2019-01-21T07:37:19.767Z,1001.02
2019-01-21T07:38:19.797Z,1000.99
2019-01-21T07:39:19.838Z,1000.95
2019-01-21T07:40:19.862Z,1000.95
2019-01-21T07:41:19.896Z,1001.03
2019-01-21T07:42:19.929Z,1001.03
2019-01-21T07:43:19.961Z,1001.07
2019-01-21T07:44:19.995Z,1001.00
2019-01-21T07:45:20.028Z,1001.04
2019-01-21T07:46:20.060Z,1000.99
2019-01-21T07:47:20.094Z,1001.01
2019-01-21T07:48:20.133Z,1001.04
2019-01-21T07:49:20.169Z,1001.01
2019-01-21T07:50:20.210Z,1001.05
2019-01-21T07:51:20.226Z,1001.05
2019-01-21T07:52:20.259Z,1001.13
2019-01-21T07:53:20.291Z,1001.06
2019-01-21T07:54:20.324Z,1001.06
2019-01-21T07:55:20.360Z,1001.03
2019-01-21T07:56:20.391Z,1001.06
2019-01-21T07:57:20.426Z,1001.12
2019-01-21T07:58:20.462Z,1001.18
2019-01-21T07:59:20.498Z,1001.15
2019-01-21T08:00:20.525Z,1001.13
2019-01-21T08:01:20.561Z,1001.20
2019-01-21T08:02:20.598Z,1001.18
2019-01-21T08:03:20.727Z,1001.16
2019-01-21T08:04:20.660Z,1001.14
2019-01-21T08:05:20.690Z,1001.18
2019-01-21T08:06:20.724Z,1001.15
2019-01-21T08:07:20.757Z,1001.15
2019-01-21T08:08:20.789Z,1001.20
2019-01-21T08:09:20.823Z,1001.18
2019-01-21T08:10:20.857Z,1001.13
2019-01-21T08:11:20.893Z,1001.10
2019-01-21T08:12:20.923Z,1001.15
2019-01-21T08:13:20.956Z,1001.16
2019-01-21T08:14:20.990Z,1001.16
2019-01-21T08:15:21.142Z,1001.17
2019-01-21T08:16:21.056Z,1001.20
2019-01-21T08:17:21.089Z,1001.21
2019-01-21T08:18:21.125Z,1001.21
2019-01-21T08:19:24.379Z,1001.24
2019-01-21T08:20:21.192Z,1001.28
2019-01-21T08:21:21.223Z,1001.26
2019-01-21T08:22:21.268Z,1001.26
2019-01-21T08:23:21.293Z,1001.26
2019-01-21T08:24:21.324Z,1001.20
2019-01-21T08:25:21.358Z,1001.24
2019-01-21T08:26:21.403Z,1001.25
2019-01-21T08:27:21.424Z,1001.24
2019-01-21T08:28:21.470Z,1001.27
2019-01-21T08:29:21.501Z,1001.27
2019-01-21T08:30:21.525Z,1001.27
2019-01-21T08:31:21.558Z,1001.28
2019-01-21T08:32:21.591Z,1001.29
2019-01-21T08:33:21.628Z,1001.30
2019-01-21T08:34:21.660Z,1001.31
2019-01-21T08:35:21.694Z,1001.28
2019-01-21T08:36:21.727Z,1001.25
2019-01-21T08:37:21.761Z,1001.30
2019-01-21T08:38:21.798Z,1001.28
2019-01-21T08:39:21.833Z,1001.33
2019-01-21T08:40:21.860Z,1001.34
2019-01-21T08:41:21.923Z,1001.33
2019-01-21T08:42:21.928Z,1001.35
2019-01-21T08:43:21.964Z,1001.38
2019-01-21T08:44:21.999Z,1001.39
2019-01-21T08:45:22.029Z,1001.40
2019-01-21T08:46:22.214Z,1001.37
2019-01-21T08:47:22.101Z,1001.39
2019-01-21T08:48:22.130Z,1001.39
2019-01-21T08:49:22.170Z,1001.33
2019-01-21T08:50:22.197Z,1001.37
2019-01-21T08:51:22.236Z,1001.39
2019-01-21T08:52:22.264Z,1001.33
2019-01-21T08:53:22.299Z,1001.33
2019-01-21T08:54:22.333Z,1001.31
2019-01-21T08:55:22.367Z,1001.33
2019-01-21T08:56:22.401Z,1001.29
2019-01-21T08:57:22.435Z,1001.31
2019-01-21T08:58:22.468Z,1001.33
2019-01-21T08:59:22.510Z,1001.36
2019-01-21T09:00:22.535Z,1001.33
2019-01-21T09:01:22.569Z,1001.36
2019-01-21T09:02:23.776Z,1001.36
2019-01-21T09:03:22.639Z,1001.37
2019-01-21T09:04:22.672Z,1001.35
2019-01-21T09:05:22.710Z,1001.36
2019-01-21T09:06:22.741Z,1001.38
2019-01-21T09:07:22.780Z,1001.33
2019-01-21T09:08:23.129Z,1001.37
2019-01-21T09:09:22.842Z,1001.39
2019-01-21T09:10:22.877Z,1001.34
2019-01-21T09:11:22.909Z,1001.34
2019-01-21T09:12:22.944Z,1001.32
2019-01-21T09:13:22.978Z,1001.30
2019-01-21T09:14:23.019Z,1001.36
2019-01-21T09:15:23.045Z,1001.35
2019-01-21T09:16:23.078Z,1001.38
2019-01-21T09:17:23.113Z,1001.36
2019-01-21T09:18:23.147Z,1001.45
2019-01-21T09:19:23.189Z,1001.45
2019-01-21T09:20:23.213Z,1001.41
2019-01-21T09:21:23.248Z,1001.43
2019-01-21T09:22:23.283Z,1001.45
2019-01-21T09:23:23.318Z,1001.50
2019-01-21T09:24:23.349Z,1001.49
2019-01-21T09:25:23.383Z,1001.48
2019-01-21T09:26:23.417Z,1001.47
2019-01-21T09:27:23.451Z,1001.50
2019-01-21T09:28:23.485Z,1001.46
2019-01-21T09:29:23.536Z,1001.46
2019-01-21T09:30:23.554Z,1001.42
2019-01-21T09:31:23.587Z,1001.48
2019-01-21T09:32:23.622Z,1001.46
2019-01-21T09:33:23.656Z,1001.49
2019-01-21T09:34:23.693Z,1001.49
2019-01-21T09:35:23.733Z,1001.49
2019-01-21T09:36:23.766Z,1001.54
2019-01-21T09:37:23.817Z,1001.54
2019-01-21T09:38:23.826Z,1001.50
2019-01-21T09:39:23.861Z,1001.49
2019-01-21T09:40:23.894Z,1001.48
2019-01-21T09:41:23.930Z,1001.44
2019-01-21T09:42:23.962Z,1001.48
2019-01-21T09:43:23.996Z,1001.49
2019-01-21T09:44:24.040Z,1001.53
2019-01-21T09:45:24.067Z,1001.52
2019-01-21T09:46:24.105Z,1001.54
2019-01-21T09:47:24.134Z,1001.55
2019-01-21T09:48:24.166Z,1001.49
2019-01-21T09:49:24.203Z,1001.48
2019-01-21T09:50:24.236Z,1001.56
2019-01-21T09:51:24.271Z,1001.54
2019-01-21T09:52:24.304Z,1001.56
2019-01-21T09:53:24.338Z,1001.58
2019-01-21T09:54:24.373Z,1001.55
2019-01-21T09:55:24.419Z,1001.46
2019-01-21T09:56:24.436Z,1001.40
2019-01-21T09:57:24.474Z,1001.41
2019-01-21T09:58:24.508Z,1001.37
2019-01-21T09:59:24.541Z,1001.35
2019-01-21T10:00:24.573Z,1001.38
2019-01-21T10:01:24.607Z,1001.40
2019-01-21T10:02:24.641Z,1001.37
2019-01-21T10:03:24.676Z,1001.39
2019-01-21T10:04:24.746Z,1001.34
2019-01-21T10:05:24.772Z,1001.34
2019-01-21T10:06:24.777Z,1001.36
2019-01-21T10:07:24.811Z,1001.36
2019-01-21T10:08:24.847Z,1001.35
2019-01-21T10:09:24.879Z,1001.35
2019-01-21T10:10:24.914Z,1001.41
2019-01-21T10:11:24.948Z,1001.37
2019-01-21T10:12:24.986Z,1001.39
2019-01-21T10:13:25.019Z,1001.36
2019-01-21T10:14:25.055Z,1001.36
2019-01-21T10:15:25.098Z,1001.29
2019-01-21T10:16:25.120Z,1001.24
2019-01-21T10:17:25.153Z,1001.26
2019-01-21T10:18:25.188Z,1001.22
2019-01-21T10:19:25.385Z,1001.25
2019-01-21T10:20:25.257Z,1001.20
2019-01-21T10:21:25.292Z,1001.15
2019-01-21T10:22:25.325Z,1001.17
2019-01-21T10:23:25.361Z,1001.15
2019-01-21T10:24:25.430Z,1001.16
2019-01-21T10:25:25.435Z,1001.10
2019-01-21T10:26:25.464Z,1001.12
2019-01-21T10:27:25.504Z,1001.10
2019-01-21T10:28:25.537Z,1001.07
2019-01-21T10:29:25.567Z,1001.11
2019-01-21T10:30:25.612Z,1001.09
2019-01-21T10:31:25.636Z,1001.07
2019-01-21T10:32:25.669Z,1001.06
2019-01-21T10:33:25.706Z,1001.06
2019-01-21T10:34:25.738Z,1001.03
2019-01-21T10:35:25.775Z,1001.00
2019-01-21T10:36:25.815Z,1001.05
2019-01-21T10:37:25.842Z,1000.97
2019-01-21T10:38:25.875Z,1000.97
2019-01-21T10:39:25.911Z,1000.98
2019-01-21T10:40:25.944Z,1000.94
2019-01-21T10:41:25.978Z,1000.93
2019-01-21T10:42:26.013Z,1000.95
2019-01-21T10:43:26.047Z,1000.91
2019-01-21T10:44:26.081Z,1000.89
2019-01-21T10:45:26.120Z,1000.90
2019-01-21T10:46:26.150Z,1000.87
2019-01-21T10:47:26.187Z,1000.88
2019-01-21T10:48:26.231Z,1000.85
2019-01-21T10:49:26.252Z,1000.89
2019-01-21T10:50:26.289Z,1000.89
2019-01-21T10:51:26.323Z,1000.93
2019-01-21T10:52:26.364Z,1000.91
2019-01-21T10:53:26.390Z,1000.84
2019-01-21T10:54:26.424Z,1000.82
2019-01-21T10:55:26.459Z,1000.81
2019-01-21T10:56:26.496Z,1000.82
2019-01-21T10:57:26.530Z,1000.81
2019-01-21T10:58:26.571Z,1000.78
2019-01-21T10:59:26.609Z,1000.82
2019-01-21T11:00:26.630Z,1000.78
2019-01-21T11:01:26.664Z,1000.79
2019-01-21T11:02:26.699Z,1000.80
2019-01-21T11:03:26.738Z,1000.78
2019-01-21T11:04:26.767Z,1000.82
2019-01-21T11:05:26.811Z,1000.82
2019-01-21T11:06:26.845Z,1000.85
2019-01-21T11:07:26.871Z,1000.86
2019-01-21T11:08:26.908Z,1000.85
2019-01-21T11:09:26.989Z,1000.85
2019-01-21T11:10:26.974Z,1000.88
2019-01-21T11:11:27.007Z,1000.80
2019-01-21T11:12:27.050Z,1000.78
2019-01-21T11:13:27.074Z,1000.77
2019-01-21T11:14:27.111Z,1000.80
2019-01-21T11:15:27.148Z,1000.87
2019-01-21T11:16:27.186Z,1000.85
2019-01-21T11:17:27.213Z,1000.84
2019-01-21T11:18:27.248Z,1000.80
2019-01-21T11:19:27.285Z,1000.73
2019-01-21T11:20:27.318Z,1000.70
2019-01-21T11:21:27.352Z,1000.65
2019-01-21T11:22:27.385Z,1000.67
2019-01-21T11:23:27.435Z,1000.66
2019-01-21T11:24:27.452Z,1000.64
2019-01-21T11:25:27.487Z,1000.58
2019-01-21T11:26:27.521Z,1000.61
2019-01-21T11:27:27.559Z,1000.57
2019-01-21T11:28:27.590Z,1000.59
2019-01-21T11:29:27.626Z,1000.52
2019-01-21T11:30:27.668Z,1000.51
2019-01-21T11:31:27.700Z,1000.48
2019-01-21T11:32:27.729Z,1000.43
2019-01-21T11:33:27.764Z,1000.43
2019-01-21T11:34:27.799Z,1000.39
2019-01-21T11:35:27.934Z,1000.39
2019-01-21T11:36:27.875Z,1000.40
2019-01-21T11:37:27.902Z,1000.35
2019-01-21T11:38:27.986Z,1000.34
2019-01-21T11:39:27.972Z,1000.33
2019-01-21T11:40:28.007Z,1000.24
2019-01-21T11:41:28.038Z,1000.26
2019-01-21T11:42:28.076Z,1000.22
2019-01-21T11:43:29.300Z,1000.24
2019-01-21T11:44:28.143Z,1000.16
2019-01-21T11:45:28.177Z,1000.12
2019-01-21T11:46:28.212Z,1000.08
2019-01-21T11:47:28.247Z,1000.04
2019-01-21T11:48:28.281Z,1000.00
2019-01-21T11:49:28.317Z,1000.03
2019-01-21T11:50:28.352Z,1000.01
2019-01-21T11:51:28.385Z,1000.08
2019-01-21T11:52:28.427Z,1000.02
2019-01-21T11:53:28.466Z,1000.05
2019-01-21T11:54:28.490Z,1000.03
2019-01-21T11:55:28.527Z,1000.00
2019-01-21T11:56:28.557Z,1000.00
2019-01-21T11:57:28.596Z,999.98
2019-01-21T11:58:28.635Z,999.96
2019-01-21T11:59:28.769Z,999.95
2019-01-21T12:00:28.697Z,999.94
2019-01-21T12:01:28.731Z,999.98
2019-01-21T12:02:28.764Z,1000.00
2019-01-21T12:03:28.800Z,999.98
2019-01-21T12:04:28.846Z,1000.01
2019-01-21T12:05:28.871Z,1000.03
2019-01-21T12:06:28.906Z,999.98